createdAt,value
2018-04-10T00:01:35.631Z,99956.92
2018-04-10T00:04:03.111Z,99949.96
2018-04-10T00:06:30.569Z,99948.16
2018-04-10T00:08:58.064Z,99945.17
2018-04-10T00:11:25.581Z,99946.53
2018-04-10T00:13:53.032Z,99941.49
2018-04-10T00:16:20.502Z,99946.80
2018-04-10T00:18:47.999Z,99938.63
2018-04-10T00:21:15.496Z,99940.39
2018-04-10T00:23:42.957Z,99941.89
2018-04-10T00:26:10.416Z,99947.05
2018-04-10T00:28:37.919Z,99939.72
2018-04-10T00:31:05.392Z,99935.23
2018-04-10T00:33:32.850Z,99939.72
2018-04-10T00:36:00.335Z,99941.09
2018-04-10T00:38:27.829Z,99938.36
2018-04-10T00:40:55.288Z,99932.22
2018-04-10T00:43:22.764Z,99929.89
2018-04-10T00:45:50.340Z,99928.94
2018-04-10T00:48:17.792Z,99928.02
2018-04-10T00:50:45.272Z,99922.68
2018-04-10T00:53:24.540Z,99922.97
2018-04-10T00:55:52.017Z,99922.83
2018-04-10T00:58:19.482Z,99923.63
2018-04-10T01:00:47.000Z,99924.73
2018-04-10T01:03:14.456Z,99925.81
2018-04-10T01:05:41.923Z,99925.41
2018-04-10T01:08:09.405Z,99924.59
2018-04-10T01:10:36.857Z,99922.53
2018-04-10T01:13:04.337Z,99914.09
2018-04-10T01:15:31.843Z,99911.38
2018-04-10T01:17:59.340Z,99911.78
2018-04-10T01:20:26.799Z,99910.53
2018-04-10T01:22:54.328Z,99910.96
2018-04-10T01:25:21.921Z,99914.09
2018-04-10T01:27:49.391Z,99905.22
2018-04-10T01:30:16.884Z,99906.98
2018-04-10T01:32:44.374Z,99907.69
2018-04-10T01:35:11.842Z,99906.03
2018-04-10T01:37:39.348Z,99904.96
2018-04-10T01:40:06.871Z,99904.00
2018-04-10T01:42:34.428Z,99901.84
2018-04-10T01:45:01.908Z,99899.23
2018-04-10T01:47:29.371Z,99895.98
2018-04-10T01:49:56.826Z,99897.31
2018-04-10T01:52:24.303Z,99897.05
2018-04-10T01:54:51.924Z,99892.81
2018-04-10T01:57:19.404Z,99895.83
2018-04-10T01:59:46.868Z,99902.48
2018-04-10T02:02:14.507Z,99896.48
2018-04-10T02:04:42.057Z,99901.94
2018-04-10T02:07:09.532Z,99903.85
2018-04-10T02:09:37.024Z,99905.47
2018-04-10T02:12:04.543Z,99907.23
2018-04-10T02:14:32.055Z,99900.83
2018-04-10T02:16:59.536Z,99900.16
2018-04-10T02:19:27.096Z,99890.89
2018-04-10T02:21:54.552Z,99889.27
2018-04-10T02:24:22.129Z,99894.16
2018-04-10T02:26:49.588Z,99887.75
2018-04-10T02:29:17.044Z,99895.22
2018-04-10T02:31:44.593Z,99887.20
2018-04-10T02:34:12.052Z,99893.85
2018-04-10T02:36:39.507Z,99900.80
2018-04-10T02:39:06.984Z,99899.81
2018-04-10T02:41:34.440Z,99898.30
2018-04-10T02:44:01.987Z,99897.33
2018-04-10T02:46:29.540Z,99891.88
2018-04-10T02:48:57.017Z,99885.06
2018-04-10T02:51:24.481Z,99875.78
2018-04-10T02:53:51.959Z,99880.97
2018-04-10T02:56:19.456Z,99877.44
2018-04-10T02:58:46.924Z,99882.44
2018-04-10T03:01:14.384Z,99871.44
2018-04-10T03:03:41.897Z,99870.47
2018-04-10T03:06:09.408Z,99868.41
2018-04-10T03:08:36.859Z,99870.98
2018-04-10T03:11:04.378Z,99871.81
2018-04-10T03:13:31.884Z,99871.37
2018-04-10T03:15:59.437Z,99873.97
2018-04-10T03:18:26.924Z,99879.25
2018-04-10T03:20:54.379Z,99882.13
2018-04-10T03:23:21.869Z,99875.82
2018-04-10T03:25:49.376Z,99877.42
2018-04-10T03:28:16.827Z,99871.56
2018-04-10T03:30:44.335Z,99883.80
2018-04-10T03:33:11.794Z,99884.19
2018-04-10T03:35:39.347Z,99880.50
2018-04-10T03:38:06.865Z,99883.22
2018-04-10T03:40:34.331Z,99880.64
2018-04-10T03:43:01.789Z,99874.09
2018-04-10T03:45:29.310Z,99875.33
2018-04-10T03:47:56.927Z,99875.03
2018-04-10T03:50:24.361Z,99872.05
2018-04-10T03:52:51.832Z,99884.67
2018-04-10T03:55:19.292Z,99876.90
2018-04-10T03:57:46.751Z,99871.72
2018-04-10T04:00:14.240Z,99871.57
2018-04-10T04:02:41.692Z,99864.92
2018-04-10T04:05:09.148Z,99864.91
2018-04-10T04:07:36.655Z,99871.70
2018-04-10T04:12:54.517Z,99860.04
2018-04-10T04:15:21.978Z,99855.15
2018-04-10T04:17:49.440Z,99855.26
2018-04-10T04:20:28.788Z,99853.90
2018-04-10T04:22:56.247Z,99854.74
2018-04-10T04:25:23.695Z,99856.62
2018-04-10T04:27:51.237Z,99853.10
2018-04-10T04:30:18.697Z,99860.86
2018-04-10T04:32:46.160Z,99861.02
2018-04-10T04:35:13.656Z,99864.00
2018-04-10T04:37:41.176Z,99866.86
2018-04-10T04:40:08.632Z,99867.97
2018-04-10T04:42:36.099Z,99872.17
2018-04-10T04:45:03.625Z,99868.23
2018-04-10T04:47:31.095Z,99874.81
2018-04-10T04:50:03.571Z,99874.11
2018-04-10T04:52:31.032Z,99879.05
2018-04-10T04:54:58.504Z,99890.22
2018-04-10T04:57:25.970Z,99886.05
2018-04-10T04:59:53.516Z,99887.96
2018-04-10T05:02:20.972Z,99885.75
2018-04-10T05:04:48.563Z,99884.00
2018-04-10T05:07:16.068Z,99881.16
2018-04-10T05:09:43.529Z,99883.05
2018-04-10T05:12:11.013Z,99881.59
2018-04-10T05:14:38.464Z,99882.65
2018-04-10T05:17:05.921Z,99886.48
2018-04-10T05:19:33.384Z,99882.72
2018-04-10T05:22:00.862Z,99877.80
2018-04-10T05:24:28.387Z,99878.75
2018-04-10T05:26:55.884Z,99878.89
2018-04-10T05:29:23.370Z,99891.14
2018-04-10T05:31:50.898Z,99894.56
2018-04-10T05:34:18.421Z,99896.45
2018-04-10T05:36:45.902Z,99903.55
2018-04-10T05:39:13.484Z,99911.77
2018-04-10T05:41:41.102Z,99905.72
2018-04-10T05:44:08.698Z,99909.64
2018-04-10T05:46:36.162Z,99904.44
2018-04-10T05:49:03.726Z,99898.90
2018-04-10T05:51:31.211Z,99898.09
2018-04-10T05:53:58.664Z,99901.12
2018-04-10T05:56:26.124Z,99902.74
2018-04-10T05:58:53.638Z,99909.30
2018-04-10T06:01:21.155Z,99903.70
2018-04-10T06:03:48.612Z,99903.71
2018-04-10T06:06:16.214Z,99908.76
2018-04-10T06:08:43.732Z,99904.01
2018-04-10T06:11:11.200Z,99908.91
2018-04-10T06:13:38.662Z,99908.79
2018-04-10T06:16:06.157Z,99910.14
2018-04-10T06:18:33.620Z,99911.39
2018-04-10T06:21:01.084Z,99904.71
2018-04-10T06:23:28.559Z,99893.52
2018-04-10T06:25:56.025Z,99897.89
2018-04-10T06:28:23.597Z,99903.33
2018-04-10T06:30:51.090Z,99909.04
2018-04-10T06:33:18.570Z,99915.30
2018-04-10T06:35:46.040Z,99915.41
2018-04-10T06:38:13.618Z,99912.56
2018-04-10T06:40:41.181Z,99907.34
2018-04-10T06:43:08.640Z,99915.95
2018-04-10T06:45:36.231Z,99909.95
2018-04-10T06:48:03.760Z,99913.47
2018-04-10T06:50:31.212Z,99915.66
2018-04-10T06:52:58.828Z,99910.47
2018-04-10T06:55:26.380Z,99905.88
2018-04-10T06:57:53.940Z,99901.02
2018-04-10T07:00:21.430Z,99904.95
2018-04-10T07:02:48.899Z,99908.82
2018-04-10T07:05:16.365Z,99911.67
2018-04-10T07:07:43.837Z,99914.08
2018-04-10T07:10:11.308Z,99918.81
2018-04-10T07:12:38.780Z,99918.33
2018-04-10T07:15:06.240Z,99912.91
2018-04-10T07:17:33.762Z,99913.81
2018-04-10T07:20:01.223Z,99922.00
2018-04-10T07:22:28.697Z,99926.19
2018-04-10T07:24:56.333Z,99926.21
2018-04-10T07:27:23.897Z,99929.52
2018-04-10T07:29:51.424Z,99928.28
2018-04-10T07:32:18.909Z,99926.95
2018-04-10T07:34:46.395Z,99934.11
2018-04-10T07:37:13.939Z,99933.95
2018-04-10T07:39:41.416Z,99932.25
2018-04-10T07:42:08.920Z,99931.41
2018-04-10T07:44:36.374Z,99929.81
2018-04-10T07:47:03.853Z,99936.12
2018-04-10T07:49:31.344Z,99931.70
2018-04-10T07:51:58.804Z,99929.98
2018-04-10T07:54:26.397Z,99932.87
2018-04-10T07:56:53.882Z,99932.86
2018-04-10T07:59:21.359Z,99931.94
2018-04-10T08:01:48.959Z,99929.52
2018-04-10T08:04:16.480Z,99936.78
2018-04-10T08:06:43.936Z,99934.78
2018-04-10T08:09:11.389Z,99936.92
2018-04-10T08:11:38.867Z,99937.20
2018-04-10T08:14:06.321Z,99938.49
2018-04-10T08:16:33.803Z,99933.91
2018-04-10T08:19:01.265Z,99937.45
2018-04-10T08:21:28.738Z,99938.33
2018-04-10T08:23:56.371Z,99938.71
2018-04-10T08:26:23.833Z,99941.26
2018-04-10T08:28:51.341Z,99936.92
2018-04-10T08:31:18.823Z,99940.43
2018-04-10T08:33:46.280Z,99936.31
2018-04-10T08:36:13.755Z,99939.98
2018-04-10T08:38:41.245Z,99947.08
2018-04-10T08:41:08.704Z,99941.89
2018-04-10T08:43:36.166Z,99941.66
2018-04-10T08:46:03.656Z,99944.27
2018-04-10T08:48:31.115Z,99939.94
2018-04-10T08:50:58.655Z,99934.41
2018-04-10T08:53:26.160Z,99942.48
2018-04-10T08:55:53.616Z,99940.73
2018-04-10T08:58:21.083Z,99942.11
2018-04-10T09:00:48.556Z,99944.09
2018-04-10T09:03:16.013Z,99951.84
2018-04-10T09:05:43.509Z,99950.98
2018-04-10T09:08:10.982Z,99952.11
2018-04-10T09:10:38.432Z,99946.16
2018-04-10T09:13:06.027Z,99956.89
2018-04-10T09:15:33.497Z,99952.53
2018-04-10T09:18:00.957Z,99955.61
2018-04-10T09:20:28.507Z,99950.59
2018-04-10T09:22:56.057Z,99953.30
2018-04-10T09:25:23.593Z,99953.63
2018-04-10T09:27:51.088Z,99942.28
2018-04-10T09:30:18.575Z,99946.89
2018-04-10T09:32:46.061Z,99941.10
2018-04-10T09:35:13.560Z,99950.06
2018-04-10T09:37:41.020Z,99951.96
2018-04-10T09:40:08.503Z,99955.73
2018-04-10T09:42:35.984Z,99957.23
2018-04-10T09:45:03.465Z,99958.00
2018-04-10T09:47:30.965Z,99957.70
2018-04-10T09:49:58.538Z,99957.50
2018-04-10T09:52:26.013Z,99958.80
2018-04-10T09:54:53.472Z,99963.36
2018-04-10T09:57:21.044Z,99962.58
2018-04-10T09:59:48.513Z,99970.34
2018-04-10T10:02:15.968Z,99974.27
2018-04-10T10:04:43.449Z,99975.56
2018-04-10T10:07:12.849Z,99982.16
2018-04-10T10:09:40.316Z,99971.36
2018-04-10T10:12:07.808Z,99973.06
2018-04-10T10:14:35.378Z,99973.23
2018-04-10T10:17:02.840Z,99971.84
2018-04-10T10:19:30.321Z,99967.59
2018-04-10T10:21:57.772Z,99977.42
2018-04-10T10:24:25.476Z,99971.19
2018-04-10T10:26:52.975Z,99972.42
2018-04-10T10:29:20.460Z,99975.34
2018-04-10T10:31:47.948Z,99978.27
2018-04-10T10:34:15.449Z,99975.42
2018-04-10T10:36:42.947Z,99978.97
2018-04-10T10:39:10.497Z,99977.63
2018-04-10T10:41:38.065Z,99975.16
2018-04-10T10:44:05.548Z,99978.10
2018-04-10T10:46:33.030Z,99978.38
2018-04-10T10:49:00.504Z,99978.44
2018-04-10T10:51:27.983Z,99968.36
2018-04-10T10:53:55.464Z,99970.96
2018-04-10T10:56:22.933Z,99964.50
2018-04-10T10:58:50.386Z,99971.73
2018-04-10T11:01:17.874Z,99977.87
2018-04-10T11:03:45.348Z,99984.15
2018-04-10T11:06:12.844Z,99971.13
2018-04-10T11:08:40.587Z,99978.87
2018-04-10T11:11:08.165Z,99982.18
2018-04-10T11:13:35.626Z,99978.03
2018-04-10T11:16:03.155Z,99984.23
2018-04-10T11:18:30.608Z,99983.18
2018-04-10T11:20:58.111Z,99979.13
2018-04-10T11:23:25.572Z,99977.44
2018-04-10T11:25:53.028Z,99975.77
2018-04-10T11:28:20.504Z,99979.03
2018-04-10T11:30:48.130Z,99978.70
2018-04-10T11:33:15.600Z,99985.86
2018-04-10T11:35:43.080Z,99984.80
2018-04-10T11:38:10.559Z,99982.30
2018-04-10T11:40:38.028Z,99978.70
2018-04-10T11:43:05.500Z,99977.26
2018-04-10T11:45:33.008Z,99974.35
2018-04-10T11:48:00.535Z,99966.59
2018-04-10T11:50:28.041Z,99965.48
2018-04-10T11:52:55.520Z,99963.91
2018-04-10T11:55:22.982Z,99968.06
2018-04-10T11:57:50.465Z,99968.94
2018-04-10T12:00:17.956Z,99963.83
2018-04-10T12:02:45.460Z,99961.47
2018-04-10T12:05:12.938Z,99963.91
2018-04-10T12:07:40.474Z,99958.84
2018-04-10T12:10:07.948Z,99963.50
2018-04-10T12:12:35.643Z,99948.84
2018-04-10T12:15:03.134Z,99956.13
2018-04-10T12:17:30.626Z,99961.81
2018-04-10T12:19:58.092Z,99959.40
2018-04-10T12:22:25.584Z,99958.14
2018-04-10T12:24:53.056Z,99943.54
2018-04-10T12:27:20.571Z,99941.46
2018-04-10T12:29:48.075Z,99943.80
2018-04-10T12:32:15.527Z,99946.27
2018-04-10T12:34:42.991Z,99937.16
2018-04-10T12:37:10.464Z,99943.42
2018-04-10T12:39:38.005Z,99938.69
2018-04-10T12:42:05.471Z,99938.28
2018-04-10T12:44:32.960Z,99939.16
2018-04-10T12:47:00.480Z,99946.41
2018-04-10T12:49:27.946Z,99937.98
2018-04-10T12:51:55.425Z,99928.66
2018-04-10T12:54:22.882Z,99937.89
2018-04-10T12:56:50.420Z,99934.17
2018-04-10T12:59:17.927Z,99929.86
2018-04-10T13:01:45.397Z,99936.09
2018-04-10T13:04:12.849Z,99936.00
2018-04-10T13:06:40.325Z,99936.73
2018-04-10T13:09:07.828Z,99928.87
2018-04-10T13:11:35.340Z,99926.41
2018-04-10T13:14:02.884Z,99918.92
2018-04-10T13:16:30.332Z,99928.38
2018-04-10T13:18:57.827Z,99928.98
2018-04-10T13:21:25.387Z,99927.24
2018-04-10T13:23:52.851Z,99931.53
2018-04-10T13:26:20.411Z,99929.30
2018-04-10T13:28:47.880Z,99929.06
2018-04-10T13:31:15.346Z,99924.36
2018-04-10T13:33:42.921Z,99932.54
2018-04-10T13:36:10.412Z,99936.48
2018-04-10T13:38:37.868Z,99933.60
2018-04-10T13:41:05.347Z,99931.83
2018-04-10T13:43:32.848Z,99933.40
2018-04-10T13:46:00.336Z,99930.05
2018-04-10T13:48:27.791Z,99924.79
2018-04-10T13:50:55.285Z,99916.34
2018-04-10T13:53:22.872Z,99920.48
2018-04-10T13:55:50.363Z,99927.42
2018-04-10T13:58:17.956Z,99918.66
2018-04-10T14:00:45.432Z,99918.30
2018-04-10T14:03:12.947Z,99907.67
2018-04-10T14:05:40.460Z,99909.22
2018-04-10T14:08:07.936Z,99907.36
2018-04-10T14:10:35.416Z,99911.37
2018-04-10T14:13:03.062Z,99900.09
2018-04-10T14:15:30.535Z,99909.63
2018-04-10T14:17:58.703Z,99901.81
2018-04-10T14:20:26.176Z,99903.27
2018-04-10T14:22:53.688Z,99904.34
2018-04-10T14:25:21.184Z,99894.16
2018-04-10T14:27:48.643Z,99892.73
2018-04-10T14:30:16.111Z,99887.56
2018-04-10T14:32:43.636Z,99878.52
2018-04-10T14:35:11.117Z,99875.09
2018-04-10T14:37:38.573Z,99877.89
2018-04-10T14:40:06.052Z,99874.41
2018-04-10T14:42:33.522Z,99874.88
2018-04-10T14:45:01.027Z,99875.57
2018-04-10T14:47:28.598Z,99873.93
2018-04-10T14:49:56.130Z,99871.43
2018-04-10T14:52:23.593Z,99868.77
2018-04-10T14:54:51.159Z,99872.65
2018-04-10T14:57:18.619Z,99870.30
2018-04-10T14:59:46.083Z,99869.02
2018-04-10T15:02:13.640Z,99866.21
2018-04-10T15:04:41.136Z,99875.08
2018-04-10T15:07:08.604Z,99870.44
2018-04-10T15:09:36.060Z,99868.78
2018-04-10T15:12:03.588Z,99866.72
2018-04-10T15:14:31.073Z,99866.19
2018-04-10T15:16:58.565Z,99870.45
2018-04-10T15:19:26.050Z,99851.84
2018-04-10T15:21:53.528Z,99853.86
2018-04-10T15:24:21.005Z,99869.05
2018-04-10T15:26:48.469Z,99860.58
2018-04-10T15:29:15.992Z,99866.11
2018-04-10T15:31:43.576Z,99864.91
2018-04-10T15:34:11.032Z,99865.81
2018-04-10T15:36:38.488Z,99866.06
2018-04-10T15:39:06.937Z,99859.36
2018-04-10T15:41:34.396Z,99858.67
2018-04-10T15:44:01.941Z,99856.71
2018-04-10T15:46:29.436Z,99859.23
2018-04-10T15:48:56.887Z,99859.50
2018-04-10T15:51:24.339Z,99858.79
2018-04-10T15:53:51.824Z,99859.65
2018-04-10T15:56:19.284Z,99860.55
2018-04-10T15:58:46.840Z,99864.22
2018-04-10T16:01:14.346Z,99868.91
2018-04-10T16:03:41.800Z,99864.63
2018-04-10T16:06:09.258Z,99874.09
2018-04-10T16:08:36.732Z,99875.40
2018-04-10T16:11:04.194Z,99883.75
2018-04-10T16:13:31.648Z,99884.75
2018-04-10T16:15:59.133Z,99882.17
2018-04-10T16:18:26.594Z,99884.55
2018-04-10T16:20:54.054Z,99877.09
2018-04-10T16:23:21.541Z,99885.84
2018-04-10T16:25:49.004Z,99882.38
2018-04-10T16:28:16.458Z,99887.20
2018-04-10T16:30:43.944Z,99881.72
2018-04-10T16:33:11.481Z,99889.50
2018-04-10T16:35:38.950Z,99888.83
2018-04-10T16:38:06.436Z,99892.69
2018-04-10T16:40:33.925Z,99887.45
2018-04-10T16:43:01.427Z,99896.06
2018-04-10T16:45:28.949Z,99900.36
2018-04-10T16:47:56.442Z,99899.77
2018-04-10T16:50:24.114Z,99900.19
2018-04-10T16:52:51.622Z,99915.70
2018-04-10T16:55:19.100Z,99903.60
2018-04-10T16:57:46.633Z,99913.83
2018-04-10T17:00:14.075Z,99913.12
2018-04-10T17:02:41.548Z,99920.80
2018-04-10T17:05:09.004Z,99920.02
2018-04-10T17:07:36.471Z,99925.61
2018-04-10T17:10:03.976Z,99927.31
2018-04-10T17:12:31.485Z,99930.30
2018-04-10T17:14:58.903Z,99931.42
2018-04-10T17:17:26.411Z,99933.37
2018-04-10T17:19:53.865Z,99937.28
2018-04-10T17:22:21.423Z,99938.36
2018-04-10T17:24:48.936Z,99940.17
2018-04-10T17:27:16.425Z,99942.42
2018-04-10T17:29:43.897Z,99947.16
2018-04-10T17:32:11.394Z,99948.95
2018-04-10T17:34:38.851Z,99948.99
2018-04-10T17:37:06.396Z,99954.44
2018-04-10T17:39:33.937Z,99957.78
2018-04-10T17:42:01.407Z,99964.64
2018-04-10T17:44:28.868Z,99962.19
2018-04-10T17:46:56.347Z,99964.71
2018-04-10T17:49:23.806Z,99966.66
2018-04-10T17:51:51.307Z,99968.69
2018-04-10T17:54:18.868Z,99972.41
2018-04-10T17:56:46.311Z,99980.94
2018-04-10T17:59:13.768Z,99979.23
2018-04-10T18:01:41.255Z,99981.83
2018-04-10T18:04:08.707Z,99985.38
2018-04-10T18:06:36.175Z,99992.66
2018-04-10T18:09:03.649Z,99993.59
2018-04-10T18:11:31.129Z,100002.33
2018-04-10T18:13:58.625Z,100007.56
2018-04-10T18:16:26.197Z,100014.27
2018-04-10T18:18:53.681Z,100017.11
2018-04-10T18:21:21.160Z,100025.69
2018-04-10T18:23:48.663Z,100028.26
2018-04-10T18:26:16.129Z,100033.03
2018-04-10T18:28:43.603Z,100036.14
2018-04-10T18:31:11.134Z,100037.02
2018-04-10T18:33:38.589Z,100045.09
2018-04-10T18:36:06.095Z,100050.20
2018-04-10T18:38:33.582Z,100054.47
2018-04-10T18:41:01.067Z,100059.00
2018-04-10T18:43:28.538Z,100061.52
2018-04-10T18:45:56.024Z,100063.95
2018-04-10T18:48:23.561Z,100070.59
2018-04-10T18:50:51.037Z,100075.57
2018-04-10T18:53:18.557Z,100079.12
2018-04-10T18:55:46.040Z,100080.84
2018-04-10T18:58:13.556Z,100088.86
2018-04-10T19:00:40.997Z,100094.77
2018-04-10T19:03:08.483Z,100108.73
2018-04-10T19:05:35.992Z,100116.44
2018-04-10T19:08:03.462Z,100117.91
2018-04-10T19:10:30.964Z,100122.08
2018-04-10T19:12:58.436Z,100116.97
2018-04-10T19:15:25.893Z,100122.16
2018-04-10T19:17:53.424Z,100123.25
2018-04-10T19:20:20.932Z,100134.78
2018-04-10T19:22:48.726Z,100126.31
2018-04-10T19:25:16.260Z,100130.61
2018-04-10T19:27:43.736Z,100125.03
2018-04-10T19:30:11.208Z,100135.37
2018-04-10T19:32:38.749Z,100140.03
2018-04-10T19:35:06.310Z,100134.61
2018-04-10T19:37:33.868Z,100138.70
2018-04-10T19:40:01.396Z,100148.66
2018-04-10T19:42:28.868Z,100145.08
2018-04-10T19:44:56.550Z,100147.22
2018-04-10T19:47:24.108Z,100146.30
2018-04-10T19:49:51.581Z,100152.75
2018-04-10T19:52:19.096Z,100147.48
2018-04-10T19:54:46.614Z,100159.73
2018-04-10T19:57:14.134Z,100159.63
2018-04-10T19:59:41.604Z,100158.13
2018-04-10T20:02:09.225Z,100157.50
2018-04-10T20:04:36.787Z,100165.50
2018-04-10T20:07:04.493Z,100166.92
2018-04-10T20:09:32.090Z,100167.62
2018-04-10T20:11:59.564Z,100164.08
2018-04-10T20:14:27.147Z,100165.77
2018-04-10T20:16:54.727Z,100167.84
2018-04-10T20:19:22.195Z,100170.19
2018-04-10T20:21:49.717Z,100166.11
2018-04-10T20:24:17.207Z,100172.41
2018-04-10T20:26:44.760Z,100170.23
2018-04-10T20:29:12.224Z,100172.13
2018-04-10T20:31:39.720Z,100171.05
2018-04-10T20:34:07.196Z,100175.95
2018-04-10T20:36:34.813Z,100171.72
2018-04-10T20:39:02.304Z,100170.35
2018-04-10T20:41:29.768Z,100169.14
2018-04-10T20:43:57.317Z,100188.81
2018-04-10T20:46:24.997Z,100188.69
2018-04-10T20:48:52.470Z,100191.69
2018-04-10T20:51:19.933Z,100198.93
2018-04-10T20:53:47.473Z,100200.16
2018-04-10T20:56:14.933Z,100205.08
2018-04-10T20:58:42.392Z,100210.44
2018-04-10T21:01:09.932Z,100214.80
2018-04-10T21:03:37.408Z,100220.39
2018-04-10T21:06:04.860Z,100220.54
2018-04-10T21:08:32.361Z,100218.89
2018-04-10T21:10:59.820Z,100227.90
2018-04-10T21:13:27.312Z,100239.11
2018-04-10T21:15:54.792Z,100244.02
2018-04-10T21:18:22.248Z,100238.25
2018-04-10T21:20:49.836Z,100243.16
2018-04-10T21:23:17.323Z,100233.46
2018-04-10T21:25:44.831Z,100239.06
2018-04-10T21:28:12.266Z,100240.84
2018-04-10T21:30:39.759Z,100241.39
2018-04-10T21:33:07.216Z,100237.00
2018-04-10T21:35:34.680Z,100234.56
2018-04-10T21:38:02.170Z,100241.53
2018-04-10T21:40:29.632Z,100243.56
2018-04-10T21:43:02.839Z,100230.47
2018-04-10T21:45:30.320Z,100232.54
2018-04-10T21:47:57.810Z,100232.95
2018-04-10T21:50:25.308Z,100236.34
2018-04-10T21:52:52.768Z,100236.64
2018-04-10T21:55:20.232Z,100233.35
2018-04-10T21:57:47.716Z,100222.55
2018-04-10T22:00:15.189Z,100229.38
2018-04-10T22:02:42.668Z,100225.27
2018-04-10T22:05:10.155Z,100228.30
2018-04-10T22:07:37.627Z,100221.98
2018-04-10T22:10:05.089Z,100230.32
2018-04-10T22:12:32.589Z,100228.14
2018-04-10T22:15:00.055Z,100228.28
2018-04-10T22:17:27.561Z,100231.53
2018-04-10T22:19:55.056Z,100229.09
2018-04-10T22:22:22.540Z,100225.41
2018-04-10T22:24:50.032Z,100221.32
2018-04-10T22:27:17.692Z,100225.96
2018-04-10T22:29:45.313Z,100230.86
2018-04-10T22:32:12.836Z,100237.53
2018-04-10T22:34:40.365Z,100233.59
2018-04-10T22:37:07.869Z,100239.31
2018-04-10T22:39:35.340Z,100235.91
2018-04-10T22:42:02.816Z,100234.80
2018-04-10T22:44:30.297Z,100238.07
2018-04-10T22:46:57.833Z,100232.32
2018-04-10T22:49:25.298Z,100237.78
2018-04-10T22:51:52.762Z,100231.77
2018-04-10T22:54:25.180Z,100244.34
2018-04-10T22:56:52.693Z,100246.67
2018-04-10T22:59:20.159Z,100256.90
2018-04-10T23:01:47.649Z,100250.64
2018-04-10T23:04:15.112Z,100250.68
2018-04-10T23:06:42.582Z,100251.77
2018-04-10T23:09:10.077Z,100249.99
2018-04-10T23:11:37.555Z,100251.77
2018-04-10T23:14:05.055Z,100259.70
2018-04-10T23:16:32.544Z,100265.15
2018-04-10T23:19:00.032Z,100266.11
2018-04-10T23:21:27.511Z,100267.47
2018-04-10T23:23:55.006Z,100270.35
2018-04-10T23:26:22.464Z,100257.77
2018-04-10T23:28:49.937Z,100261.05
2018-04-10T23:31:17.423Z,100268.03
2018-04-10T23:33:44.893Z,100266.12
2018-04-10T23:36:12.453Z,100272.55
2018-04-10T23:38:39.956Z,100277.20
2018-04-10T23:41:07.440Z,100267.09
2018-04-10T23:43:34.905Z,100263.69
2018-04-10T23:46:02.390Z,100270.52
2018-04-10T23:48:29.855Z,100270.38
2018-04-10T23:50:57.305Z,100270.66
2018-04-10T23:53:24.784Z,100275.72
2018-04-10T23:55:52.243Z,100273.10
2018-04-10T23:58:19.708Z,100272.55
